createdAt,value
2019-05-11T00:00:33.502Z,8.43
2019-05-11T00:01:33.492Z,8.37
2019-05-11T00:02:33.513Z,8.36
2019-05-11T00:03:33.519Z,8.36
2019-05-11T00:04:33.459Z,8.38
2019-05-11T00:05:33.446Z,8.33
2019-05-11T00:06:33.435Z,8.29
2019-05-11T00:07:33.441Z,8.36
2019-05-11T00:08:33.439Z,8.29
2019-05-11T00:09:33.405Z,8.33
2019-05-11T00:10:33.393Z,8.28
2019-05-11T00:11:33.379Z,8.33
2019-05-11T00:12:33.371Z,8.33
2019-05-11T00:13:33.380Z,8.23
2019-05-11T00:14:33.347Z,8.33
2019-05-11T00:15:33.340Z,8.26
2019-05-11T00:16:33.325Z,8.30
2019-05-11T00:17:33.317Z,8.30
2019-05-11T00:18:33.323Z,8.33
2019-05-11T00:19:33.293Z,8.33
2019-05-11T00:20:33.280Z,8.30
2019-05-11T00:21:33.271Z,8.33
2019-05-11T00:22:33.281Z,8.26
2019-05-11T00:23:33.245Z,8.28
2019-05-11T00:24:33.243Z,8.29
2019-05-11T00:25:33.248Z,8.26
2019-05-11T00:26:33.217Z,8.29
2019-05-11T00:27:33.204Z,8.26
2019-05-11T00:28:33.191Z,8.44
2019-05-11T00:29:33.209Z,8.38
2019-05-11T00:30:33.168Z,8.28
2019-05-11T00:31:33.202Z,8.38
2019-05-11T00:32:33.149Z,8.43
2019-05-11T00:33:33.169Z,8.41
2019-05-11T00:34:33.139Z,8.41
2019-05-11T00:35:33.674Z,8.44
2019-05-11T00:36:33.102Z,8.30
2019-05-11T00:37:33.192Z,8.30
2019-05-11T00:38:33.078Z,8.33
2019-05-11T00:39:33.163Z,8.26
2019-05-11T00:40:33.080Z,8.20
2019-05-11T00:41:33.046Z,8.33
2019-05-11T00:42:33.039Z,8.19
2019-05-11T00:43:33.065Z,8.20
2019-05-11T00:44:33.017Z,8.16
2019-05-11T00:45:33.027Z,8.22
2019-05-11T00:46:32.989Z,8.22
2019-05-11T00:47:32.980Z,8.18
2019-05-11T00:48:32.967Z,8.19
2019-05-11T00:49:32.955Z,8.19
2019-05-11T00:50:39.396Z,8.12
2019-05-11T00:51:33.932Z,8.19
2019-05-11T00:52:32.923Z,8.19
2019-05-11T00:53:32.965Z,8.16
2019-05-11T00:54:32.901Z,8.20
2019-05-11T00:55:32.888Z,8.16
2019-05-11T00:56:32.878Z,8.18
2019-05-11T00:57:32.866Z,8.18
2019-05-11T00:58:32.895Z,8.20
2019-05-11T00:59:32.847Z,8.19
2019-05-11T01:00:32.838Z,8.12
2019-05-11T01:01:32.825Z,8.18
2019-05-11T01:02:32.815Z,8.12
2019-05-11T01:03:32.826Z,8.12
2019-05-11T01:04:32.811Z,8.15
2019-05-11T01:05:32.780Z,8.04
2019-05-11T01:06:32.793Z,8.05
2019-05-11T01:07:32.755Z,8.01
2019-05-11T01:08:32.744Z,8.02
2019-05-11T01:09:32.736Z,7.98
2019-05-11T01:10:41.708Z,7.97
2019-05-11T01:11:33.745Z,7.97
2019-05-11T01:12:32.699Z,7.98
2019-05-11T01:13:32.689Z,7.90
2019-05-11T01:14:32.676Z,7.97
2019-05-11T01:15:32.663Z,7.87
2019-05-11T01:16:32.657Z,7.97
2019-05-11T01:17:32.660Z,7.92
2019-05-11T01:18:32.631Z,7.90
2019-05-11T01:19:32.651Z,7.92
2019-05-11T01:20:32.611Z,7.86
2019-05-11T01:21:32.599Z,7.89
2019-05-11T01:22:32.586Z,7.90
2019-05-11T01:23:32.576Z,7.92
2019-05-11T01:24:32.597Z,7.92
2019-05-11T01:25:32.577Z,7.79
2019-05-11T01:26:32.545Z,7.75
2019-05-11T01:27:32.528Z,7.72
2019-05-11T01:28:32.523Z,7.86
2019-05-11T01:29:32.506Z,7.71
2019-05-11T01:30:32.514Z,7.80
2019-05-11T01:31:32.483Z,7.79
2019-05-11T01:32:32.474Z,7.79
2019-05-11T01:33:32.472Z,7.82
2019-05-11T01:34:32.474Z,7.77
2019-05-11T01:35:32.458Z,7.85
2019-05-11T01:36:32.487Z,7.79
2019-05-11T01:37:32.419Z,7.74
2019-05-11T01:38:32.408Z,7.75
2019-05-11T01:39:32.398Z,7.79
2019-05-11T01:40:32.412Z,7.77
2019-05-11T01:41:32.372Z,7.77
2019-05-11T01:42:32.396Z,7.77
2019-05-11T01:43:32.351Z,7.80
2019-05-11T01:44:32.338Z,7.77
2019-05-11T01:45:32.336Z,7.80
2019-05-11T01:46:32.315Z,7.79
2019-05-11T01:47:32.328Z,7.77
2019-05-11T01:48:32.294Z,7.79
2019-05-11T01:49:32.315Z,7.74
2019-05-11T01:50:32.296Z,7.80
2019-05-11T01:51:32.261Z,7.77
2019-05-11T01:52:32.251Z,7.75
2019-05-11T01:53:32.240Z,7.80
2019-05-11T01:54:32.245Z,7.72
2019-05-11T01:55:32.237Z,7.74
2019-05-11T01:56:32.219Z,7.83
2019-05-11T01:57:32.193Z,7.79
2019-05-11T01:58:32.221Z,7.82
2019-05-11T01:59:32.170Z,7.77
2019-05-11T02:00:32.184Z,7.80
2019-05-11T02:01:32.148Z,7.77
2019-05-11T02:02:32.139Z,7.80
2019-05-11T02:03:32.127Z,7.83
2019-05-11T02:04:32.141Z,7.83
2019-05-11T02:05:32.108Z,7.79
2019-05-11T02:06:32.092Z,7.80
2019-05-11T02:07:32.081Z,7.74
2019-05-11T02:08:32.070Z,7.82
2019-05-11T02:09:32.082Z,7.80
2019-05-11T02:10:32.054Z,7.71
2019-05-11T02:11:32.039Z,7.83
2019-05-11T02:12:32.033Z,7.79
2019-05-11T02:13:32.016Z,7.79
2019-05-11T02:14:32.026Z,7.75
2019-05-11T02:15:31.999Z,7.75
2019-05-11T02:16:31.980Z,7.77
2019-05-11T02:17:31.994Z,7.80
2019-05-11T02:18:31.959Z,7.80
2019-05-11T02:19:31.953Z,7.79
2019-05-11T02:20:31.954Z,7.75
2019-05-11T02:21:31.924Z,7.82
2019-05-11T02:22:31.913Z,7.82
2019-05-11T02:23:31.906Z,7.77
2019-05-11T02:24:31.915Z,7.82
2019-05-11T02:25:31.879Z,7.85
2019-05-11T02:26:31.869Z,7.79
2019-05-11T02:27:31.857Z,7.80
2019-05-11T02:28:31.865Z,7.83
2019-05-11T02:29:31.843Z,7.82
2019-05-11T02:30:31.824Z,7.82
2019-05-11T02:31:31.851Z,7.83
2019-05-11T02:32:31.803Z,7.79
2019-05-11T02:33:31.825Z,7.82
2019-05-11T02:34:31.780Z,7.82
2019-05-11T02:35:31.775Z,7.75
2019-05-11T02:36:31.764Z,7.82
2019-05-11T02:37:31.776Z,7.80
2019-05-11T02:38:31.758Z,7.77
2019-05-11T02:39:31.739Z,7.80
2019-05-11T02:40:31.739Z,7.75
2019-05-11T02:41:36.489Z,7.69
2019-05-11T02:42:32.688Z,7.67
2019-05-11T02:43:31.705Z,7.63
2019-05-11T02:44:31.672Z,7.68
2019-05-11T02:45:31.692Z,7.71
2019-05-11T02:46:31.702Z,7.61
2019-05-11T02:47:31.642Z,7.64
2019-05-11T02:48:31.622Z,7.68
2019-05-11T02:49:31.612Z,7.68
2019-05-11T02:50:31.624Z,7.63
2019-05-11T02:51:31.591Z,7.71
2019-05-11T02:52:31.580Z,7.69
2019-05-11T02:53:31.569Z,7.61
2019-05-11T02:54:31.556Z,7.64
2019-05-11T02:55:31.559Z,7.57
2019-05-11T02:56:31.539Z,7.68
2019-05-11T02:57:31.531Z,7.69
2019-05-11T02:58:31.537Z,7.64
2019-05-11T02:59:31.503Z,7.55
2019-05-11T03:00:31.488Z,7.60
2019-05-11T03:01:31.479Z,7.63
2019-05-11T03:02:31.489Z,7.71
2019-05-11T03:03:31.456Z,7.69
2019-05-11T03:04:31.472Z,7.67
2019-05-11T03:05:31.432Z,7.71
2019-05-11T03:06:31.428Z,7.67
2019-05-11T03:07:31.439Z,7.67
2019-05-11T03:08:31.401Z,7.69
2019-05-11T03:09:31.394Z,7.80
2019-05-11T03:10:31.386Z,7.61
2019-05-11T03:11:31.392Z,7.68
2019-05-11T03:12:31.356Z,7.68
2019-05-11T03:13:31.345Z,7.69
2019-05-11T03:14:31.331Z,7.67
2019-05-11T03:15:31.326Z,7.67
2019-05-11T03:16:31.334Z,7.63
2019-05-11T03:17:31.299Z,7.74
2019-05-11T03:18:31.288Z,7.72
2019-05-11T03:19:31.305Z,7.63
2019-05-11T03:20:31.268Z,7.69
2019-05-11T03:21:31.281Z,7.72
2019-05-11T03:22:31.249Z,7.74
2019-05-11T03:23:31.255Z,7.72
2019-05-11T03:24:31.222Z,7.63
2019-05-11T03:25:31.235Z,7.68
2019-05-11T03:26:31.222Z,7.72
2019-05-11T03:27:31.190Z,7.74
2019-05-11T03:28:31.180Z,7.67
2019-05-11T03:29:31.164Z,7.72
2019-05-11T03:30:31.159Z,7.75
2019-05-11T03:31:31.173Z,7.72
2019-05-11T03:32:31.142Z,7.79
2019-05-11T03:33:31.144Z,7.80
2019-05-11T03:34:31.110Z,7.82
2019-05-11T03:35:31.098Z,7.77
2019-05-11T03:36:31.087Z,7.74
2019-05-11T03:37:31.082Z,7.69
2019-05-11T03:38:31.093Z,7.69
2019-05-11T03:39:31.061Z,7.71
2019-05-11T03:40:31.042Z,7.64
2019-05-11T03:41:31.030Z,7.68
2019-05-11T03:42:31.036Z,7.64
2019-05-11T03:43:31.009Z,7.74
2019-05-11T03:44:31.034Z,7.83
2019-05-11T03:45:30.985Z,7.77
2019-05-11T03:46:30.987Z,7.83
2019-05-11T03:47:30.963Z,7.82
2019-05-11T03:48:30.956Z,7.75
2019-05-11T03:49:30.970Z,7.82
2019-05-11T03:50:30.932Z,7.77
2019-05-11T03:51:30.924Z,7.68
2019-05-11T03:52:30.911Z,7.72
2019-05-11T03:53:30.922Z,7.64
2019-05-11T03:54:30.884Z,7.71
2019-05-11T03:55:30.884Z,7.67
2019-05-11T03:56:30.864Z,7.68
2019-05-11T03:57:30.851Z,7.79
2019-05-11T03:58:30.871Z,7.68
2019-05-11T03:59:30.835Z,7.71
2019-05-11T04:00:30.822Z,7.71
2019-05-11T04:01:30.814Z,7.67
2019-05-11T04:02:30.796Z,7.69
2019-05-11T04:03:30.814Z,7.72
2019-05-11T04:04:30.801Z,7.72
2019-05-11T04:05:30.771Z,7.71
2019-05-11T04:06:30.779Z,7.64
2019-05-11T04:07:30.740Z,7.64
2019-05-11T04:08:30.728Z,7.67
2019-05-11T04:09:30.741Z,7.68
2019-05-11T04:10:30.708Z,7.67
2019-05-11T04:11:30.694Z,7.67
2019-05-11T04:12:35.486Z,7.67
2019-05-11T04:13:31.673Z,7.72
2019-05-11T04:14:30.672Z,7.63
2019-05-11T04:15:30.651Z,7.69
2019-05-11T04:16:30.664Z,7.60
2019-05-11T04:17:30.632Z,7.64
2019-05-11T04:18:30.613Z,7.60
2019-05-11T04:19:30.627Z,7.57
2019-05-11T04:20:30.596Z,7.64
2019-05-11T04:21:30.589Z,7.74
2019-05-11T04:22:30.594Z,7.64
2019-05-11T04:23:30.557Z,7.74
2019-05-11T04:24:30.545Z,7.77
2019-05-11T04:25:30.565Z,7.75
2019-05-11T04:26:30.525Z,7.77
2019-05-11T04:27:30.512Z,7.80
2019-05-11T04:28:30.592Z,7.75
2019-05-11T04:29:30.489Z,7.77
2019-05-11T04:30:30.505Z,7.86
2019-05-11T04:31:30.476Z,7.89
2019-05-11T04:32:30.456Z,7.87
2019-05-11T04:33:33.047Z,7.85
2019-05-11T04:34:30.460Z,7.90
2019-05-11T04:35:30.467Z,7.97
2019-05-11T04:36:30.411Z,7.92
2019-05-11T04:37:30.401Z,7.87
2019-05-11T04:38:30.394Z,8.00
2019-05-11T04:39:30.390Z,7.92
2019-05-11T04:40:30.390Z,7.95
2019-05-11T04:41:30.357Z,7.95
2019-05-11T04:42:30.347Z,7.97
2019-05-11T04:43:30.341Z,8.01
2019-05-11T04:44:30.349Z,8.00
2019-05-11T04:45:30.312Z,7.98
2019-05-11T04:46:30.397Z,7.95
2019-05-11T04:47:30.355Z,7.97
2019-05-11T04:48:30.281Z,7.92
2019-05-11T04:49:30.293Z,8.00
2019-05-11T04:50:30.256Z,7.95
2019-05-11T04:51:30.243Z,8.05
2019-05-11T04:52:30.235Z,7.97
2019-05-11T04:53:30.227Z,8.01
2019-05-11T04:54:30.224Z,7.97
2019-05-11T04:55:30.318Z,7.92
2019-05-11T04:56:30.194Z,7.95
2019-05-11T04:57:30.181Z,7.89
2019-05-11T04:58:30.189Z,7.93
2019-05-11T04:59:30.157Z,7.92
2019-05-11T05:00:30.149Z,7.97
2019-05-11T05:01:30.134Z,7.93
2019-05-11T05:02:30.120Z,8.01
2019-05-11T05:03:40.190Z,7.98
2019-05-11T05:04:31.099Z,8.02
2019-05-11T05:05:30.088Z,8.04
2019-05-11T05:06:30.076Z,8.00
2019-05-11T05:07:30.089Z,7.93
2019-05-11T05:08:30.055Z,8.07
2019-05-11T05:09:30.106Z,7.93
2019-05-11T05:10:30.031Z,7.95
2019-05-11T05:11:30.572Z,8.04
2019-05-11T05:12:31.007Z,7.98
2019-05-11T05:13:31.500Z,8.00
2019-05-11T05:14:30.001Z,7.98
2019-05-11T05:15:29.975Z,8.10
2019-05-11T05:16:31.483Z,8.01
2019-05-11T05:17:29.978Z,8.15
2019-05-11T05:18:29.942Z,8.18
2019-05-11T05:19:29.933Z,8.22
2019-05-11T05:20:29.948Z,8.16
2019-05-11T05:21:29.934Z,8.18
2019-05-11T05:22:29.920Z,8.28
2019-05-11T05:23:29.909Z,8.36
2019-05-11T05:24:29.876Z,8.36
2019-05-11T05:25:29.863Z,8.45
2019-05-11T05:26:29.854Z,8.52
2019-05-11T05:27:29.843Z,8.48
2019-05-11T05:28:29.854Z,8.55
2019-05-11T05:29:29.823Z,8.56
2019-05-11T05:30:29.808Z,8.58
2019-05-11T05:31:29.797Z,8.61
2019-05-11T05:32:29.788Z,8.59
2019-05-11T05:33:29.806Z,8.66
2019-05-11T05:34:29.767Z,8.76
2019-05-11T05:35:29.755Z,8.77
2019-05-11T05:36:29.746Z,8.86
2019-05-11T05:37:29.732Z,8.92
2019-05-11T05:38:29.740Z,8.92
2019-05-11T05:39:29.709Z,9.02
2019-05-11T05:40:29.697Z,8.98
2019-05-11T05:41:29.711Z,9.10
2019-05-11T05:42:29.672Z,9.10
2019-05-11T05:43:29.668Z,9.14
2019-05-11T05:44:29.654Z,9.14
2019-05-11T05:45:29.685Z,9.14
2019-05-11T05:46:29.631Z,9.13
2019-05-11T05:47:29.616Z,9.13
2019-05-11T05:48:29.640Z,9.05
2019-05-11T05:49:29.598Z,9.11
2019-05-11T05:50:29.581Z,9.05
2019-05-11T05:51:29.600Z,8.94
2019-05-11T05:52:29.596Z,8.91
2019-05-11T05:53:29.595Z,8.98
2019-05-11T05:54:29.567Z,8.96
2019-05-11T05:55:29.555Z,9.10
2019-05-11T05:56:29.547Z,9.05
2019-05-11T05:57:29.536Z,9.08
2019-05-11T05:58:29.553Z,9.13
2019-05-11T05:59:29.513Z,9.14
2019-05-11T06:00:29.547Z,9.18
2019-05-11T06:01:29.460Z,9.15
2019-05-11T06:02:29.447Z,9.14
2019-05-11T06:03:29.435Z,9.20
2019-05-11T06:04:29.429Z,9.21
2019-05-11T06:05:29.438Z,9.20
2019-05-11T06:06:29.403Z,9.31
2019-05-11T06:07:29.389Z,9.21
2019-05-11T06:08:29.380Z,9.17
2019-05-11T06:09:29.369Z,9.28
2019-05-11T06:10:29.377Z,9.18
2019-05-11T06:11:29.418Z,9.23
2019-05-11T06:12:29.366Z,9.26
2019-05-11T06:13:43.991Z,9.18
2019-05-11T06:14:30.310Z,9.28
2019-05-11T06:15:29.300Z,9.40
2019-05-11T06:16:29.289Z,9.43
2019-05-11T06:17:29.332Z,9.39
2019-05-11T06:18:29.266Z,9.38
2019-05-11T06:19:29.255Z,9.51
2019-05-11T06:20:29.289Z,9.47
2019-05-11T06:21:29.234Z,9.47
2019-05-11T06:22:29.220Z,9.47
2019-05-11T06:23:29.209Z,9.43
2019-05-11T06:24:29.206Z,9.53
2019-05-11T06:25:29.260Z,9.46
2019-05-11T06:26:29.176Z,9.40
2019-05-11T06:27:29.165Z,9.54
2019-05-11T06:28:29.184Z,9.51
2019-05-11T06:29:29.150Z,9.54
2019-05-11T06:30:29.133Z,9.47
2019-05-11T06:31:29.119Z,9.54
2019-05-11T06:32:29.108Z,9.54
2019-05-11T06:33:29.119Z,9.47
2019-05-11T06:34:29.084Z,9.53
2019-05-11T06:35:29.079Z,9.60
2019-05-11T06:36:29.061Z,9.60
2019-05-11T06:37:29.052Z,9.69
2019-05-11T06:38:29.066Z,9.76
2019-05-11T06:39:29.030Z,9.78
2019-05-11T06:40:29.021Z,9.79
2019-05-11T06:41:29.009Z,9.79
2019-05-11T06:42:28.995Z,9.90
2019-05-11T06:43:29.006Z,9.97
2019-05-11T06:44:28.971Z,9.91
2019-05-11T06:45:28.964Z,10.07
2019-05-11T06:46:28.989Z,10.02
2019-05-11T06:47:28.940Z,10.20
2019-05-11T06:48:28.925Z,10.23
2019-05-11T06:49:28.919Z,10.27
2019-05-11T06:50:28.905Z,10.41
2019-05-11T06:51:28.927Z,10.51
2019-05-11T06:52:28.892Z,10.42
2019-05-11T06:53:28.898Z,10.52
2019-05-11T06:54:28.859Z,10.53
2019-05-11T06:55:28.853Z,10.48
2019-05-11T06:56:28.861Z,10.48
2019-05-11T06:57:28.827Z,10.27
2019-05-11T06:58:28.841Z,10.26
2019-05-11T06:59:28.804Z,10.29
2019-05-11T07:00:28.938Z,10.26
2019-05-11T07:01:28.782Z,10.27
2019-05-11T07:02:28.788Z,10.18
2019-05-11T07:03:28.757Z,10.26
2019-05-11T07:04:28.759Z,10.22
2019-05-11T07:05:28.764Z,10.15
2019-05-11T07:06:30.619Z,10.11
2019-05-11T07:07:28.711Z,10.18
2019-05-11T07:08:28.700Z,10.17
2019-05-11T07:09:28.690Z,10.18
2019-05-11T07:10:28.700Z,10.15
2019-05-11T07:11:28.668Z,10.23
2019-05-11T07:12:28.656Z,10.20
2019-05-11T07:13:28.669Z,10.09
2019-05-11T07:14:28.637Z,10.05
2019-05-11T07:15:28.626Z,10.07
2019-05-11T07:16:28.644Z,10.08
2019-05-11T07:17:28.599Z,10.05
2019-05-11T07:18:28.587Z,9.97
2019-05-11T07:19:28.582Z,9.94
2019-05-11T07:20:28.568Z,9.93
2019-05-11T07:21:28.572Z,10.02
2019-05-11T07:22:28.547Z,9.97
2019-05-11T07:23:28.533Z,9.87
2019-05-11T07:24:28.534Z,9.97
2019-05-11T07:25:28.532Z,9.91
2019-05-11T07:26:28.507Z,10.01
2019-05-11T07:27:28.486Z,9.99
2019-05-11T07:28:28.474Z,10.07
2019-05-11T07:29:28.467Z,9.99
2019-05-11T07:30:28.478Z,9.96
2019-05-11T07:31:28.562Z,9.99
2019-05-11T07:32:29.360Z,9.96
2019-05-11T07:33:28.777Z,9.93
2019-05-11T07:34:28.407Z,9.87
2019-05-11T07:35:28.419Z,9.91
2019-05-11T07:36:28.424Z,9.93
2019-05-11T07:37:28.400Z,9.90
2019-05-11T07:38:28.364Z,9.93
2019-05-11T07:39:28.351Z,9.96
2019-05-11T07:40:28.361Z,10.04
2019-05-11T07:41:28.370Z,9.96
2019-05-11T07:42:28.730Z,9.89
2019-05-11T07:43:28.826Z,10.01
2019-05-11T07:44:38.308Z,10.09
2019-05-11T07:45:29.315Z,9.97
2019-05-11T07:46:28.896Z,10.02
2019-05-11T07:47:28.260Z,10.07
2019-05-11T07:48:28.252Z,10.01
2019-05-11T07:49:29.200Z,10.02
2019-05-11T07:50:28.537Z,10.04
2019-05-11T07:51:28.893Z,10.04
2019-05-11T07:52:28.847Z,10.01
2019-05-11T07:53:28.193Z,10.11
2019-05-11T07:54:28.332Z,10.07
2019-05-11T07:55:28.408Z,10.09
2019-05-11T07:56:28.619Z,10.12
2019-05-11T07:57:28.478Z,10.23
2019-05-11T07:58:28.637Z,10.20
2019-05-11T07:59:28.918Z,10.23
2019-05-11T08:00:28.268Z,10.09
2019-05-11T08:01:28.428Z,10.18
2019-05-11T08:02:31.816Z,10.20
2019-05-11T08:03:28.447Z,10.17
2019-05-11T08:04:28.780Z,10.23
2019-05-11T08:05:28.482Z,10.23
2019-05-11T08:06:28.696Z,10.25
2019-05-11T08:07:28.633Z,10.26
2019-05-11T08:08:28.444Z,10.23
2019-05-11T08:09:28.077Z,10.30
2019-05-11T08:10:28.295Z,10.18
2019-05-11T08:11:31.352Z,10.27
2019-05-11T08:12:28.588Z,10.18
2019-05-11T08:13:28.362Z,10.14
2019-05-11T08:14:28.733Z,10.22
2019-05-11T08:15:28.440Z,10.18
2019-05-11T08:16:28.714Z,10.20
2019-05-11T08:17:28.612Z,10.15
2019-05-11T08:18:28.363Z,10.15
2019-05-11T08:19:28.403Z,10.20
2019-05-11T08:20:28.197Z,10.14
2019-05-11T08:21:28.552Z,10.20
2019-05-11T08:22:28.540Z,10.20
2019-05-11T08:23:28.536Z,10.14
2019-05-11T08:24:28.539Z,10.15
2019-05-11T08:25:28.679Z,10.17
2019-05-11T08:26:28.421Z,10.25
2019-05-11T08:27:28.568Z,10.23
2019-05-11T08:28:28.754Z,10.26
2019-05-11T08:29:28.044Z,10.22
2019-05-11T08:30:27.961Z,10.15
2019-05-11T08:31:28.098Z,10.22
2019-05-11T08:32:28.725Z,10.27
2019-05-11T08:33:28.493Z,10.18
2019-05-11T08:34:28.608Z,10.23
2019-05-11T08:35:31.176Z,10.15
2019-05-11T08:36:28.917Z,10.22
2019-05-11T08:37:28.389Z,10.22
2019-05-11T08:38:28.509Z,10.30
2019-05-11T08:39:28.889Z,10.26
2019-05-11T08:40:28.928Z,10.25
2019-05-11T08:41:28.124Z,10.27
2019-05-11T08:42:28.939Z,10.26
2019-05-11T08:43:28.511Z,10.29
2019-05-11T08:44:28.737Z,10.25
2019-05-11T08:45:28.150Z,10.34
2019-05-11T08:46:28.058Z,10.33
2019-05-11T08:47:28.386Z,10.48
2019-05-11T08:48:28.343Z,10.40
2019-05-11T08:49:28.700Z,10.51
2019-05-11T08:50:28.034Z,10.52
2019-05-11T08:51:28.124Z,10.53
2019-05-11T08:52:28.220Z,10.53
2019-05-11T08:53:28.454Z,10.60
2019-05-11T08:54:28.829Z,10.55
2019-05-11T08:55:28.980Z,10.60
2019-05-11T08:56:28.908Z,10.71
2019-05-11T08:57:28.499Z,10.61
2019-05-11T08:58:27.856Z,10.67
2019-05-11T08:59:28.040Z,10.59
2019-05-11T09:00:28.340Z,10.61
2019-05-11T09:01:28.667Z,10.63
2019-05-11T09:02:27.920Z,10.68
2019-05-11T09:03:28.387Z,10.61
2019-05-11T09:04:28.893Z,10.47
2019-05-11T09:05:28.121Z,10.44
2019-05-11T09:06:28.406Z,10.38
2019-05-11T09:07:27.874Z,10.45
2019-05-11T09:08:28.320Z,10.51
2019-05-11T09:09:28.627Z,10.47
2019-05-11T09:10:28.252Z,10.41
2019-05-11T09:11:28.324Z,10.47
2019-05-11T09:12:28.827Z,10.51
2019-05-11T09:13:28.061Z,10.55
2019-05-11T09:14:28.410Z,10.63
2019-05-11T09:15:36.522Z,10.59
2019-05-11T09:16:29.500Z,10.64
2019-05-11T09:17:28.887Z,10.64
2019-05-11T09:18:28.019Z,10.81
2019-05-11T09:19:28.411Z,10.76
2019-05-11T09:20:28.496Z,10.79
2019-05-11T09:21:28.169Z,10.82
2019-05-11T09:22:28.298Z,11.00
2019-05-11T09:23:34.711Z,10.88
2019-05-11T09:24:28.384Z,10.91
2019-05-11T09:25:27.748Z,10.97
2019-05-11T09:26:28.666Z,11.04
2019-05-11T09:27:28.576Z,11.06
2019-05-11T09:28:29.317Z,11.14
2019-05-11T09:29:28.212Z,11.11
2019-05-11T09:30:28.855Z,11.14
2019-05-11T09:31:27.953Z,11.18
2019-05-11T09:32:28.485Z,11.22
2019-05-11T09:33:28.291Z,11.24
2019-05-11T09:34:28.859Z,11.19
2019-05-11T09:35:29.193Z,11.33
2019-05-11T09:36:28.554Z,11.36
2019-05-11T09:37:27.725Z,11.40
2019-05-11T09:38:27.744Z,11.27
2019-05-11T09:39:28.046Z,11.36
2019-05-11T09:40:28.342Z,11.19
2019-05-11T09:41:28.902Z,11.24
2019-05-11T09:42:28.547Z,11.19
2019-05-11T09:43:28.320Z,11.22
2019-05-11T09:44:28.855Z,11.21
2019-05-11T09:45:27.819Z,11.18
2019-05-11T09:46:27.870Z,11.25
2019-05-11T09:47:27.957Z,11.33
2019-05-11T09:48:28.380Z,11.22
2019-05-11T09:49:43.322Z,11.21
2019-05-11T09:50:28.530Z,11.19
2019-05-11T09:51:28.783Z,11.25
2019-05-11T09:52:27.605Z,11.17
2019-05-11T09:53:28.319Z,11.03
2019-05-11T09:54:28.961Z,10.92
2019-05-11T09:55:28.298Z,11.04
2019-05-11T09:56:28.750Z,10.99
2019-05-11T09:57:27.665Z,10.94
2019-05-11T09:58:28.044Z,11.06
2019-05-11T09:59:28.198Z,11.03
2019-05-11T10:00:28.246Z,11.03
2019-05-11T10:01:26.749Z,11.00
2019-05-11T10:02:27.943Z,11.00
2019-05-11T10:03:28.178Z,11.04
2019-05-11T10:04:28.828Z,10.99
2019-05-11T10:05:28.635Z,11.02
2019-05-11T10:06:28.178Z,10.97
2019-05-11T10:07:28.582Z,10.91
2019-05-11T10:08:28.654Z,11.00
2019-05-11T10:09:28.010Z,11.06
2019-05-11T10:10:28.758Z,11.06
2019-05-11T10:11:28.217Z,11.14
2019-05-11T10:12:28.595Z,11.14
2019-05-11T10:13:27.886Z,11.22
2019-05-11T10:14:28.654Z,11.10
2019-05-11T10:15:27.943Z,11.21
2019-05-11T10:16:28.095Z,11.24
2019-05-11T10:17:28.700Z,11.24
2019-05-11T10:18:28.217Z,11.35
2019-05-11T10:19:28.470Z,11.22
2019-05-11T10:20:28.685Z,11.44
2019-05-11T10:21:27.820Z,11.39
2019-05-11T10:22:27.866Z,11.40
2019-05-11T10:23:27.889Z,11.37
2019-05-11T10:24:28.339Z,11.28
2019-05-11T10:25:28.504Z,11.27
2019-05-11T10:26:27.851Z,11.35
2019-05-11T10:27:27.999Z,11.40
2019-05-11T10:28:28.467Z,11.40
2019-05-11T10:29:28.697Z,11.35
2019-05-11T10:30:28.048Z,11.32
2019-05-11T10:31:28.244Z,11.21
2019-05-11T10:32:28.654Z,11.25
2019-05-11T10:33:28.153Z,11.36
2019-05-11T10:34:28.482Z,11.40
2019-05-11T10:35:28.192Z,11.37
2019-05-11T10:36:27.998Z,11.28
2019-05-11T10:37:28.287Z,11.39
2019-05-11T10:38:28.423Z,11.39
2019-05-11T10:39:27.902Z,11.42
2019-05-11T10:40:28.182Z,11.39
2019-05-11T10:41:28.447Z,11.37
2019-05-11T10:42:27.952Z,11.40
2019-05-11T10:43:28.695Z,11.43
2019-05-11T10:44:28.085Z,11.49
2019-05-11T10:45:28.376Z,11.42
2019-05-11T10:46:28.229Z,11.44
2019-05-11T10:47:27.814Z,11.58
2019-05-11T10:48:28.200Z,11.60
2019-05-11T10:49:28.642Z,11.62
2019-05-11T10:50:28.621Z,11.64
2019-05-11T10:51:28.571Z,11.73
2019-05-11T10:52:28.397Z,11.73
2019-05-11T10:53:27.837Z,11.67
2019-05-11T10:54:28.768Z,11.67
2019-05-11T10:55:27.956Z,11.69
2019-05-11T10:56:28.215Z,11.67
2019-05-11T10:57:28.313Z,11.73
2019-05-11T10:58:28.356Z,11.64
2019-05-11T10:59:28.340Z,11.58
2019-05-11T11:00:28.117Z,11.57
2019-05-11T11:01:28.383Z,11.73
2019-05-11T11:02:27.860Z,11.62
2019-05-11T11:03:28.253Z,11.49
2019-05-11T11:04:26.063Z,11.55
2019-05-11T11:05:27.901Z,11.49
2019-05-11T11:06:28.199Z,11.52
2019-05-11T11:07:28.621Z,11.60
2019-05-11T11:08:27.864Z,11.55
2019-05-11T11:09:28.030Z,11.44
2019-05-11T11:10:28.432Z,11.40
2019-05-11T11:11:27.738Z,11.29
2019-05-11T11:12:27.933Z,11.37
2019-05-11T11:13:27.964Z,11.40
2019-05-11T11:14:28.469Z,11.37
2019-05-11T11:15:25.916Z,11.36
2019-05-11T11:16:37.041Z,11.39
2019-05-11T11:17:28.734Z,11.32
2019-05-11T11:18:25.906Z,11.21
2019-05-11T11:19:25.869Z,11.24
2019-05-11T11:20:27.992Z,11.22
2019-05-11T11:21:27.845Z,11.19
2019-05-11T11:22:36.968Z,11.21
2019-05-11T11:23:28.437Z,11.25
2019-05-11T11:24:28.521Z,11.24
2019-05-11T11:25:25.814Z,11.29
2019-05-11T11:26:25.817Z,11.24
2019-05-11T11:27:25.781Z,11.15
2019-05-11T11:28:27.881Z,11.25
2019-05-11T11:29:25.756Z,11.14
2019-05-11T11:30:25.747Z,11.02
2019-05-11T11:31:25.758Z,10.91
2019-05-11T11:32:27.877Z,11.02
2019-05-11T11:33:27.535Z,10.96
2019-05-11T11:34:27.842Z,10.88
2019-05-11T11:35:27.774Z,10.78
2019-05-11T11:36:25.678Z,10.79
2019-05-11T11:37:27.934Z,10.68
2019-05-11T11:38:25.655Z,10.79
2019-05-11T11:39:28.026Z,10.73
2019-05-11T11:40:28.105Z,10.74
2019-05-11T11:41:25.622Z,10.73
2019-05-11T11:42:25.615Z,10.74
2019-05-11T11:43:25.625Z,10.73
2019-05-11T11:44:25.587Z,10.76
2019-05-11T11:45:25.583Z,10.73
2019-05-11T11:46:27.303Z,10.74
2019-05-11T11:47:25.555Z,10.61
2019-05-11T11:48:27.840Z,10.68
2019-05-11T11:49:28.068Z,10.66
2019-05-11T11:50:25.521Z,10.74
2019-05-11T11:51:25.537Z,10.60
2019-05-11T11:52:27.606Z,10.52
2019-05-11T11:53:27.773Z,10.51
2019-05-11T11:54:25.475Z,10.38
2019-05-11T11:55:25.463Z,10.41
2019-05-11T11:56:25.477Z,10.25
2019-05-11T11:57:25.446Z,10.22
2019-05-11T11:58:27.561Z,10.33
2019-05-11T11:59:25.422Z,10.33
2019-05-11T12:00:25.406Z,10.36
2019-05-11T12:01:27.894Z,10.34
2019-05-11T12:02:25.386Z,10.40
2019-05-11T12:03:27.538Z,10.45
2019-05-11T12:04:25.362Z,10.42
2019-05-11T12:05:25.350Z,10.30
2019-05-11T12:06:25.377Z,10.26
2019-05-11T12:07:25.352Z,10.20
2019-05-11T12:08:25.318Z,10.26
2019-05-11T12:09:25.307Z,10.27
2019-05-11T12:10:25.296Z,10.25
2019-05-11T12:11:27.359Z,10.15
2019-05-11T12:12:25.272Z,10.23
2019-05-11T12:13:27.383Z,10.23
2019-05-11T12:14:25.259Z,10.25
2019-05-11T12:15:25.265Z,10.20
2019-05-11T12:16:25.227Z,10.17
2019-05-11T12:17:25.216Z,10.11
2019-05-11T12:18:25.205Z,10.07
2019-05-11T12:19:25.193Z,10.08
2019-05-11T12:20:25.199Z,10.02
2019-05-11T12:21:27.514Z,9.99
2019-05-11T12:22:25.181Z,10.01
2019-05-11T12:23:25.148Z,9.90
2019-05-11T12:24:25.140Z,9.87
2019-05-11T12:25:25.125Z,9.91
2019-05-11T12:26:25.140Z,9.91
2019-05-11T12:27:25.102Z,9.90
2019-05-11T12:28:25.092Z,9.93
2019-05-11T12:29:25.080Z,9.89
2019-05-11T12:30:25.070Z,9.97
2019-05-11T12:31:25.086Z,9.93
2019-05-11T12:32:25.047Z,10.09
2019-05-11T12:33:25.050Z,10.07
2019-05-11T12:34:25.024Z,10.09
2019-05-11T12:35:25.035Z,10.07
2019-05-11T12:36:25.006Z,9.97
2019-05-11T12:37:24.992Z,9.99
2019-05-11T12:38:24.980Z,10.09
2019-05-11T12:39:24.989Z,10.02
2019-05-11T12:40:24.981Z,10.01
2019-05-11T12:41:24.948Z,9.91
2019-05-11T12:42:24.934Z,9.96
2019-05-11T12:43:24.939Z,9.99
2019-05-11T12:44:24.916Z,9.94
2019-05-11T12:45:24.926Z,9.93
2019-05-11T12:46:24.890Z,10.02
2019-05-11T12:47:25.314Z,9.89
2019-05-11T12:48:24.894Z,9.84
2019-05-11T12:49:24.859Z,9.81
2019-05-11T12:50:24.844Z,9.79
2019-05-11T12:51:24.846Z,9.91
2019-05-11T12:52:24.819Z,9.74
2019-05-11T12:53:24.810Z,9.60
2019-05-11T12:54:24.799Z,9.57
2019-05-11T12:55:24.808Z,9.57
2019-05-11T12:56:24.776Z,9.74
2019-05-11T12:57:24.788Z,9.78
2019-05-11T12:58:24.752Z,9.83
2019-05-11T12:59:24.743Z,9.97
2019-05-11T13:00:28.157Z,9.94
2019-05-11T13:01:25.716Z,9.97
2019-05-11T13:02:24.738Z,9.94
2019-05-11T13:03:24.697Z,10.07
2019-05-11T13:04:24.686Z,9.93
2019-05-11T13:05:24.674Z,10.11
2019-05-11T13:06:24.668Z,10.07
2019-05-11T13:07:24.683Z,9.96